sensor_id;sensor_type;location;lat;lon;timestamp;pressure;altitude;pressure_sealevel;temperature;humidity
39773;BME280;25451;51.960;6.250;2023-03-16T00:01:35;101692.22;;;4.69;64.89
39773;BME280;25451;51.960;6.250;2023-03-16T00:04:00;101682.16;;;4.70;65.19
39773;BME280;25451;51.960;6.250;2023-03-16T00:06:26;101688.09;;;4.73;65.13
39773;BME280;25451;51.960;6.250;2023-03-16T00:08:51;101680.44;;;4.69;65.10
39773;BME280;25451;51.960;6.250;2023-03-16T00:11:16;101682.31;;;4.68;65.05
39773;BME280;25451;51.960;6.250;2023-03-16T00:13:42;101683.69;;;4.72;65.36
39773;BME280;25451;51.960;6.250;2023-03-16T00:16:07;101672.78;;;4.64;65.22
39773;BME280;25451;51.960;6.250;2023-03-16T00:18:33;101659.84;;;4.58;65.20
39773;BME280;25451;51.960;6.250;2023-03-16T00:21:03;101687.78;;;4.68;64.98
39773;BME280;25451;51.960;6.250;2023-03-16T00:23:30;101686.09;;;4.67;65.31
39773;BME280;25451;51.960;6.250;2023-03-16T00:26:01;101691.38;;;4.69;65.01
39773;BME280;25451;51.960;6.250;2023-03-16T00:28:28;101692.97;;;4.63;65.45
39773;BME280;25451;51.960;6.250;2023-03-16T00:31:02;101685.78;;;4.62;65.38
39773;BME280;25451;51.960;6.250;2023-03-16T00:33:27;101693.25;;;4.68;65.21
39773;BME280;25451;51.960;6.250;2023-03-16T00:35:53;101681.00;;;4.64;65.22
39773;BME280;25451;51.960;6.250;2023-03-16T00:38:27;101694.31;;;4.67;65.35
39773;BME280;25451;51.960;6.250;2023-03-16T00:40:52;101690.53;;;4.68;65.19
39773;BME280;25451;51.960;6.250;2023-03-16T00:43:17;101686.09;;;4.67;65.43
39773;BME280;25451;51.960;6.250;2023-03-16T00:45:43;101673.19;;;4.61;65.32
39773;BME280;25451;51.960;6.250;2023-03-16T00:48:09;101651.72;;;4.50;65.46
39773;BME280;25451;51.960;6.250;2023-03-16T00:50:35;101652.72;;;4.57;65.43
39773;BME280;25451;51.960;6.250;2023-03-16T00:53:01;101660.16;;;4.63;65.65
39773;BME280;25451;51.960;6.250;2023-03-16T00:55:26;101659.13;;;4.64;65.25
39773;BME280;25451;51.960;6.250;2023-03-16T00:57:52;101656.69;;;4.69;65.10
39773;BME280;25451;51.960;6.250;2023-03-16T01:00:19;101649.50;;;4.68;65.14
39773;BME280;25451;51.960;6.250;2023-03-16T01:02:45;101643.09;;;4.61;65.23
39773;BME280;25451;51.960;6.250;2023-03-16T01:05:11;101637.09;;;4.66;65.41
39773;BME280;25451;51.960;6.250;2023-03-16T01:07:38;101638.75;;;4.67;65.54
39773;BME280;25451;51.960;6.250;2023-03-16T01:10:04;101628.38;;;4.62;65.51
39773;BME280;25451;51.960;6.250;2023-03-16T01:12:30;101635.16;;;4.66;65.44
39773;BME280;25451;51.960;6.250;2023-03-16T01:14:56;101628.88;;;4.66;65.40
39773;BME280;25451;51.960;6.250;2023-03-16T01:17:21;101637.75;;;4.68;65.43
39773;BME280;25451;51.960;6.250;2023-03-16T01:19:47;101638.22;;;4.71;65.06
39773;BME280;25451;51.960;6.250;2023-03-16T01:22:14;101629.91;;;4.65;65.41
39773;BME280;25451;51.960;6.250;2023-03-16T01:24:41;101623.75;;;4.63;65.69
39773;BME280;25451;51.960;6.250;2023-03-16T01:27:09;101637.75;;;4.68;65.47
39773;BME280;25451;51.960;6.250;2023-03-16T01:29:34;101610.19;;;4.55;65.66
39773;BME280;25451;51.960;6.250;2023-03-16T01:32:01;101620.84;;;4.64;65.45
39773;BME280;25451;51.960;6.250;2023-03-16T01:34:26;101618.09;;;4.64;65.62
39773;BME280;25451;51.960;6.250;2023-03-16T01:36:52;101614.16;;;4.67;65.57
39773;BME280;25451;51.960;6.250;2023-03-16T01:39:18;101602.56;;;4.65;65.57
39773;BME280;25451;51.960;6.250;2023-03-16T01:41:45;101611.72;;;4.72;65.72
39773;BME280;25451;51.960;6.250;2023-03-16T01:44:17;101608.13;;;4.71;65.72
39773;BME280;25451;51.960;6.250;2023-03-16T01:46:42;101585.69;;;4.61;65.56
39773;BME280;25451;51.960;6.250;2023-03-16T01:54:28;101592.59;;;4.72;65.58
39773;BME280;25451;51.960;6.250;2023-03-16T01:57:10;101579.28;;;4.69;65.86
39773;BME280;25451;51.960;6.250;2023-03-16T01:59:40;101573.03;;;4.60;65.74
39773;BME280;25451;51.960;6.250;2023-03-16T02:02:08;101575.22;;;4.65;65.88
39773;BME280;25451;51.960;6.250;2023-03-16T02:04:39;101569.09;;;4.63;65.59
39773;BME280;25451;51.960;6.250;2023-03-16T02:07:07;101586.72;;;4.75;65.96
39773;BME280;25451;51.960;6.250;2023-03-16T02:09:36;101573.25;;;4.73;65.74
39773;BME280;25451;51.960;6.250;2023-03-16T02:12:03;101571.38;;;4.74;65.66
39773;BME280;25451;51.960;6.250;2023-03-16T02:14:28;101561.84;;;4.70;65.69
39773;BME280;25451;51.960;6.250;2023-03-16T02:16:55;101557.41;;;4.69;65.75
39773;BME280;25451;51.960;6.250;2023-03-16T02:19:44;101564.03;;;4.74;65.96
39773;BME280;25451;51.960;6.250;2023-03-16T02:22:11;101562.66;;;4.70;66.18
39773;BME280;25451;51.960;6.250;2023-03-16T02:24:38;101556.53;;;4.68;66.04
39773;BME280;25451;51.960;6.250;2023-03-16T02:27:18;101559.28;;;4.68;65.90
39773;BME280;25451;51.960;6.250;2023-03-16T02:30:05;101568.44;;;4.75;66.23
39773;BME280;25451;51.960;6.250;2023-03-16T02:32:32;101562.31;;;4.73;65.92
39773;BME280;25451;51.960;6.250;2023-03-16T02:34:58;101548.34;;;4.68;65.83
39773;BME280;25451;51.960;6.250;2023-03-16T02:37:25;101554.75;;;4.75;65.95
39773;BME280;25451;51.960;6.250;2023-03-16T02:39:51;101540.78;;;4.70;66.07
39773;BME280;25451;51.960;6.250;2023-03-16T02:42:19;101548.28;;;4.76;65.77
39773;BME280;25451;51.960;6.250;2023-03-16T02:44:49;101544.47;;;4.77;65.84
39773;BME280;25451;51.960;6.250;2023-03-16T02:47:23;101523.72;;;4.68;66.06
39773;BME280;25451;51.960;6.250;2023-03-16T02:49:51;101535.31;;;4.70;66.13
39773;BME280;25451;51.960;6.250;2023-03-16T02:52:16;101529.69;;;4.72;65.95
39773;BME280;25451;51.960;6.250;2023-03-16T02:54:41;101535.25;;;4.78;66.17
39773;BME280;25451;51.960;6.250;2023-03-16T02:57:07;101531.19;;;4.74;66.11
39773;BME280;25451;51.960;6.250;2023-03-16T02:59:32;101519.78;;;4.71;65.88
39773;BME280;25451;51.960;6.250;2023-03-16T03:01:58;101519.97;;;4.69;66.20
39773;BME280;25451;51.960;6.250;2023-03-16T03:04:23;101522.34;;;4.72;66.20
39773;BME280;25451;51.960;6.250;2023-03-16T03:06:50;101527.06;;;4.78;66.32
39773;BME280;25451;51.960;6.250;2023-03-16T03:09:16;101500.38;;;4.66;66.38
39773;BME280;25451;51.960;6.250;2023-03-16T03:11:42;101507.25;;;4.76;66.38
39773;BME280;25451;51.960;6.250;2023-03-16T03:14:08;101515.72;;;4.81;65.99
39773;BME280;25451;51.960;6.250;2023-03-16T03:16:33;101515.72;;;4.81;66.34
39773;BME280;25451;51.960;6.250;2023-03-16T03:18:58;101512.53;;;4.78;66.21
39773;BME280;25451;51.960;6.250;2023-03-16T03:21:24;101505.34;;;4.77;66.44
39773;BME280;25451;51.960;6.250;2023-03-16T03:23:49;101494.50;;;4.69;66.26
39773;BME280;25451;51.960;6.250;2023-03-16T03:26:15;101510.25;;;4.81;66.25
39773;BME280;25451;51.960;6.250;2023-03-16T03:28:41;101519.97;;;4.84;66.55
39773;BME280;25451;51.960;6.250;2023-03-16T03:31:15;101510.91;;;4.83;66.51
39773;BME280;25451;51.960;6.250;2023-03-16T03:33:41;101491.22;;;4.73;66.28
39773;BME280;25451;51.960;6.250;2023-03-16T03:36:08;101509.69;;;4.86;66.19
39773;BME280;25451;51.960;6.250;2023-03-16T03:38:33;101501.84;;;4.83;66.13
39773;BME280;25451;51.960;6.250;2023-03-16T03:40:58;101492.22;;;4.87;66.40
39773;BME280;25451;51.960;6.250;2023-03-16T03:43:24;101482.03;;;4.81;66.25
39773;BME280;25451;51.960;6.250;2023-03-16T03:45:57;101511.19;;;4.88;66.48
39773;BME280;25451;51.960;6.250;2023-03-16T03:48:23;101512.88;;;4.89;66.64
39773;BME280;25451;51.960;6.250;2023-03-16T03:50:49;101498.53;;;4.87;66.50
39773;BME280;25451;51.960;6.250;2023-03-16T03:53:15;101481.69;;;4.84;66.42
39773;BME280;25451;51.960;6.250;2023-03-16T03:55:40;101481.94;;;4.89;66.39
39773;BME280;25451;51.960;6.250;2023-03-16T03:58:05;101495.25;;;4.92;66.52
39773;BME280;25451;51.960;6.250;2023-03-16T04:00:31;101484.22;;;4.85;66.79
39773;BME280;25451;51.960;6.250;2023-03-16T04:02:56;101487.59;;;4.87;66.49
39773;BME280;25451;51.960;6.250;2023-03-16T04:05:21;101492.72;;;4.90;66.54
39773;BME280;25451;51.960;6.250;2023-03-16T04:07:47;101488.47;;;4.88;66.59
39773;BME280;25451;51.960;6.250;2023-03-16T04:10:13;101490.63;;;4.92;66.43
39773;BME280;25451;51.960;6.250;2023-03-16T04:12:38;101499.94;;;4.98;66.24
39773;BME280;25451;51.960;6.250;2023-03-16T04:15:04;101485.59;;;4.96;66.61
39773;BME280;25451;51.960;6.250;2023-03-16T04:17:29;101490.22;;;4.95;66.67
39773;BME280;25451;51.960;6.250;2023-03-16T04:19:55;101485.41;;;4.97;66.58
39773;BME280;25451;51.960;6.250;2023-03-16T04:22:20;101484.38;;;4.98;66.71
39773;BME280;25451;51.960;6.250;2023-03-16T04:24:47;101476.19;;;4.98;66.52
39773;BME280;25451;51.960;6.250;2023-03-16T04:27:12;101468.34;;;4.95;66.52
39773;BME280;25451;51.960;6.250;2023-03-16T04:29:38;101489.09;;;5.04;66.79
39773;BME280;25451;51.960;6.250;2023-03-16T04:32:05;101464.09;;;4.93;66.99
39773;BME280;25451;51.960;6.250;2023-03-16T04:34:31;101476.19;;;4.98;66.44
39773;BME280;25451;51.960;6.250;2023-03-16T04:36:56;101465.16;;;4.92;66.55
39773;BME280;25451;51.960;6.250;2023-03-16T04:39:21;101469.41;;;4.94;66.54
39773;BME280;25451;51.960;6.250;2023-03-16T04:41:47;101467.47;;;4.95;66.68
39773;BME280;25451;51.960;6.250;2023-03-16T04:44:12;101452.63;;;4.83;66.58
39773;BME280;25451;51.960;6.250;2023-03-16T04:46:38;101459.94;;;4.97;67.12
39773;BME280;25451;51.960;6.250;2023-03-16T04:49:04;101447.63;;;4.86;66.92
39773;BME280;25451;51.960;6.250;2023-03-16T04:51:33;101459.13;;;4.96;66.80
39773;BME280;25451;51.960;6.250;2023-03-16T04:53:58;101436.69;;;4.86;66.53
39773;BME280;25451;51.960;6.250;2023-03-16T04:56:23;101443.84;;;4.87;67.00
39773;BME280;25451;51.960;6.250;2023-03-16T04:58:49;101451.47;;;4.92;66.72
39773;BME280;25451;51.960;6.250;2023-03-16T05:01:16;101446.09;;;4.98;67.08
39773;BME280;25451;51.960;6.250;2023-03-16T05:03:42;101434.88;;;4.93;67.04
39773;BME280;25451;51.960;6.250;2023-03-16T05:06:09;101424.50;;;4.89;66.88
39773;BME280;25451;51.960;6.250;2023-03-16T05:08:36;101439.69;;;4.91;66.76
39773;BME280;25451;51.960;6.250;2023-03-16T05:11:01;101444.38;;;4.97;67.06
39773;BME280;25451;51.960;6.250;2023-03-16T05:13:27;101450.06;;;4.96;66.94
39773;BME280;25451;51.960;6.250;2023-03-16T05:15:52;101445.16;;;4.91;67.14
39773;BME280;25451;51.960;6.250;2023-03-16T05:18:18;101449.19;;;4.95;66.91
39773;BME280;25451;51.960;6.250;2023-03-16T05:20:44;101443.47;;;4.90;67.26
39773;BME280;25451;51.960;6.250;2023-03-16T05:23:09;101450.25;;;4.94;67.13
39773;BME280;25451;51.960;6.250;2023-03-16T05:25:35;101442.97;;;4.87;67.38
39773;BME280;25451;51.960;6.250;2023-03-16T05:28:02;101454.00;;;4.93;67.51
39773;BME280;25451;51.960;6.250;2023-03-16T05:30:27;101439.88;;;4.90;67.27
39773;BME280;25451;51.960;6.250;2023-03-16T05:32:53;101447.22;;;4.89;67.26
39773;BME280;25451;51.960;6.250;2023-03-16T05:35:20;101455.06;;;4.92;67.17
39773;BME280;25451;51.960;6.250;2023-03-16T05:37:46;101457.50;;;4.87;67.44
39773;BME280;25451;51.960;6.250;2023-03-16T05:40:13;101450.53;;;4.85;67.25
39773;BME280;25451;51.960;6.250;2023-03-16T05:42:46;101459.03;;;4.90;67.20
39773;BME280;25451;51.960;6.250;2023-03-16T05:45:14;101447.63;;;4.86;66.79
39773;BME280;25451;51.960;6.250;2023-03-16T05:47:40;101437.16;;;4.90;67.45
39773;BME280;25451;51.960;6.250;2023-03-16T05:50:07;101448.75;;;4.92;67.29
39773;BME280;25451;51.960;6.250;2023-03-16T05:52:34;101455.72;;;4.94;67.37
39773;BME280;25451;51.960;6.250;2023-03-16T05:54:59;101456.38;;;4.96;67.52
39773;BME280;25451;51.960;6.250;2023-03-16T05:57:24;101438.00;;;4.90;67.03
39773;BME280;25451;51.960;6.250;2023-03-16T05:59:50;101454.66;;;4.95;67.49
39773;BME280;25451;51.960;6.250;2023-03-16T06:02:15;101438.66;;;4.92;67.30
39773;BME280;25451;51.960;6.250;2023-03-16T06:04:41;101430.16;;;4.87;67.36
39773;BME280;25451;51.960;6.250;2023-03-16T06:07:06;101456.19;;;4.98;67.51
39773;BME280;25451;51.960;6.250;2023-03-16T06:09:32;101432.97;;;4.94;67.23
39773;BME280;25451;51.960;6.250;2023-03-16T06:11:57;101447.75;;;4.99;67.09
39773;BME280;25451;51.960;6.250;2023-03-16T06:14:22;101460.78;;;4.97;67.42
39773;BME280;25451;51.960;6.250;2023-03-16T06:16:49;101456.53;;;4.95;67.11
39773;BME280;25451;51.960;6.250;2023-03-16T06:19:14;101455.31;;;4.97;67.17
39773;BME280;25451;51.960;6.250;2023-03-16T06:21:40;101466.34;;;5.04;67.12
39773;BME280;25451;51.960;6.250;2023-03-16T06:24:05;101467.19;;;5.04;67.21
39773;BME280;25451;51.960;6.250;2023-03-16T06:26:33;101464.25;;;5.06;67.03
39773;BME280;25451;51.960;6.250;2023-03-16T06:28:58;101430.03;;;4.95;67.42
39773;BME280;25451;51.960;6.250;2023-03-16T06:31:23;101446.75;;;5.00;67.56
39773;BME280;25451;51.960;6.250;2023-03-16T06:33:49;101445.69;;;5.01;67.14
39773;BME280;25451;51.960;6.250;2023-03-16T06:36:14;101451.69;;;5.12;67.26
39773;BME280;25451;51.960;6.250;2023-03-16T06:38:39;101451.03;;;5.10;67.51
39773;BME280;25451;51.960;6.250;2023-03-16T06:41:05;101443.47;;;5.12;67.53
39773;BME280;25451;51.960;6.250;2023-03-16T06:43:30;101420.22;;;5.01;67.35
39773;BME280;25451;51.960;6.250;2023-03-16T06:45:55;101446.09;;;5.20;67.41
39773;BME280;25451;51.960;6.250;2023-03-16T06:48:23;101438.00;;;5.12;67.16
39773;BME280;25451;51.960;6.250;2023-03-16T06:50:48;101426.22;;;5.11;67.54
39773;BME280;25451;51.960;6.250;2023-03-16T06:53:13;101451.84;;;5.25;67.23
39773;BME280;25451;51.960;6.250;2023-03-16T06:55:39;101436.19;;;5.19;67.19
39773;BME280;25451;51.960;6.250;2023-03-16T06:58:05;101453.16;;;5.29;67.02
39773;BME280;25451;51.960;6.250;2023-03-16T07:00:31;101446.63;;;5.30;67.46
39773;BME280;25451;51.960;6.250;2023-03-16T07:02:58;101429.28;;;5.23;67.17
39773;BME280;25451;51.960;6.250;2023-03-16T07:05:23;101444.16;;;5.35;67.42
39773;BME280;25451;51.960;6.250;2023-03-16T07:07:48;101443.50;;;5.33;67.38
39773;BME280;25451;51.960;6.250;2023-03-16T07:10:15;101441.00;;;5.38;67.11
39773;BME280;25451;51.960;6.250;2023-03-16T07:12:42;101440.34;;;5.36;66.98
39773;BME280;25451;51.960;6.250;2023-03-16T07:15:08;101448.84;;;5.41;67.41
39773;BME280;25451;51.960;6.250;2023-03-16T07:17:33;101444.81;;;5.37;67.20
39773;BME280;25451;51.960;6.250;2023-03-16T07:19:59;101449.88;;;5.40;67.45
39773;BME280;25451;51.960;6.250;2023-03-16T07:22:24;101453.91;;;5.44;67.27
39773;BME280;25451;51.960;6.250;2023-03-16T07:24:50;101447.78;;;5.42;67.11
39773;BME280;25451;51.960;6.250;2023-03-16T07:27:21;101451.66;;;5.47;67.38
39773;BME280;25451;51.960;6.250;2023-03-16T07:29:48;101458.44;;;5.51;66.92
39773;BME280;25451;51.960;6.250;2023-03-16T07:32:13;101458.59;;;5.50;67.40
39773;BME280;25451;51.960;6.250;2023-03-16T07:34:39;101448.25;;;5.45;67.56
39773;BME280;25451;51.960;6.250;2023-03-16T07:37:06;101461.41;;;5.56;67.53
39773;BME280;25451;51.960;6.250;2023-03-16T07:39:32;101452.09;;;5.51;67.35
39773;BME280;25451;51.960;6.250;2023-03-16T07:41:58;101456.41;;;5.60;67.25
39773;BME280;25451;51.960;6.250;2023-03-16T07:44:23;101468.00;;;5.62;67.21
39773;BME280;25451;51.960;6.250;2023-03-16T07:46:48;101472.69;;;5.68;67.65
39773;BME280;25451;51.960;6.250;2023-03-16T07:49:14;101475.88;;;5.71;67.01
39773;BME280;25451;51.960;6.250;2023-03-16T07:51:40;101468.53;;;5.72;67.34
39773;BME280;25451;51.960;6.250;2023-03-16T07:54:06;101471.50;;;5.77;67.24
39773;BME280;25451;51.960;6.250;2023-03-16T07:56:31;101470.91;;;5.81;67.58
39773;BME280;25451;51.960;6.250;2023-03-16T07:58:56;101458.75;;;5.84;66.82
39773;BME280;25451;51.960;6.250;2023-03-16T08:01:22;101467.63;;;5.93;67.52
39773;BME280;25451;51.960;6.250;2023-03-16T08:03:47;101462.63;;;5.96;67.27
39773;BME280;25451;51.960;6.250;2023-03-16T08:06:13;101455.88;;;5.99;67.46
39773;BME280;25451;51.960;6.250;2023-03-16T08:08:38;101460.78;;;6.03;67.30
39773;BME280;25451;51.960;6.250;2023-03-16T08:11:04;101450.47;;;6.05;67.17
39773;BME280;25451;51.960;6.250;2023-03-16T08:13:29;101458.69;;;6.05;66.99
39773;BME280;25451;51.960;6.250;2023-03-16T08:15:55;101456.59;;;6.07;67.24
39773;BME280;25451;51.960;6.250;2023-03-16T08:18:24;101443.75;;;6.08;67.41
39773;BME280;25451;51.960;6.250;2023-03-16T08:20:50;101445.44;;;6.09;67.02
39773;BME280;25451;51.960;6.250;2023-03-16T08:23:15;101450.06;;;6.08;67.24
39773;BME280;25451;51.960;6.250;2023-03-16T08:25:41;101455.59;;;6.15;67.64
39773;BME280;25451;51.960;6.250;2023-03-16T08:28:06;101433.41;;;6.10;67.73
39773;BME280;25451;51.960;6.250;2023-03-16T08:30:33;101458.13;;;6.16;67.73
39773;BME280;25451;51.960;6.250;2023-03-16T08:32:59;101440.41;;;6.12;68.05
39773;BME280;25451;51.960;6.250;2023-03-16T08:35:27;101437.66;;;6.12;67.66
39773;BME280;25451;51.960;6.250;2023-03-16T08:37:53;101450.31;;;6.13;68.10
39773;BME280;25451;51.960;6.250;2023-03-16T08:40:19;101459.63;;;6.19;67.45
39773;BME280;25451;51.960;6.250;2023-03-16T08:42:47;101444.19;;;6.11;67.65
39773;BME280;25451;51.960;6.250;2023-03-16T08:45:14;101453.03;;;6.13;67.63
39773;BME280;25451;51.960;6.250;2023-03-16T08:47:42;101459.63;;;6.19;67.96
39773;BME280;25451;51.960;6.250;2023-03-16T08:50:08;101452.88;;;6.21;67.94
39773;BME280;25451;51.960;6.250;2023-03-16T08:52:34;101451.00;;;6.22;67.93
39773;BME280;25451;51.960;6.250;2023-03-16T08:55:01;101438.94;;;6.16;67.91
39773;BME280;25451;51.960;6.250;2023-03-16T08:57:29;101444.22;;;6.18;68.15
39773;BME280;25451;51.960;6.250;2023-03-16T08:59:54;101448.69;;;6.25;68.47
39773;BME280;25451;51.960;6.250;2023-03-16T09:02:19;101444.72;;;6.28;68.30
39773;BME280;25451;51.960;6.250;2023-03-16T09:04:45;101452.72;;;6.29;68.06
39773;BME280;25451;51.960;6.250;2023-03-16T09:07:11;101435.00;;;6.25;68.26
39773;BME280;25451;51.960;6.250;2023-03-16T09:09:37;101444.13;;;6.32;67.90
39773;BME280;25451;51.960;6.250;2023-03-16T09:12:02;101418.78;;;6.30;68.34
39773;BME280;25451;51.960;6.250;2023-03-16T09:14:28;101440.13;;;6.41;68.36
39773;BME280;25451;51.960;6.250;2023-03-16T09:16:54;101425.78;;;6.39;68.49
39773;BME280;25451;51.960;6.250;2023-03-16T09:19:20;101434.25;;;6.44;68.07
39773;BME280;25451;51.960;6.250;2023-03-16T09:21:47;101433.88;;;6.47;68.23
39773;BME280;25451;51.960;6.250;2023-03-16T09:24:12;101436.44;;;6.55;68.03
39773;BME280;25451;51.960;6.250;2023-03-16T09:26:38;101427.78;;;6.58;68.50
39773;BME280;25451;51.960;6.250;2023-03-16T09:29:04;101406.66;;;6.52;68.19
39773;BME280;25451;51.960;6.250;2023-03-16T09:31:31;101411.38;;;6.65;68.38
39773;BME280;25451;51.960;6.250;2023-03-16T09:33:57;101408.00;;;6.63;68.30
39773;BME280;25451;51.960;6.250;2023-03-16T09:36:23;101400.81;;;6.68;68.50
39773;BME280;25451;51.960;6.250;2023-03-16T09:38:48;101397.69;;;6.72;68.55
39773;BME280;25451;51.960;6.250;2023-03-16T09:44:03;101402.78;;;6.81;68.47
39773;BME280;25451;51.960;6.250;2023-03-16T09:46:34;101396.22;;;6.82;68.31
39773;BME280;25451;51.960;6.250;2023-03-16T09:49:00;101383.56;;;6.81;68.33
39773;BME280;25451;51.960;6.250;2023-03-16T09:54:46;101380.41;;;6.84;68.35
39773;BME280;25451;51.960;6.250;2023-03-16T09:59:49;101391.63;;;6.96;68.34
39773;BME280;25451;51.960;6.250;2023-03-16T10:02:43;101373.91;;;6.92;68.61
39773;BME280;25451;51.960;6.250;2023-03-16T10:05:12;101375.59;;;6.99;68.35
39773;BME280;25451;51.960;6.250;2023-03-16T10:08:00;101381.97;;;7.06;68.36
39773;BME280;25451;51.960;6.250;2023-03-16T10:13:59;101378.16;;;7.14;68.70
39773;BME280;25451;51.960;6.250;2023-03-16T10:16:37;101365.69;;;7.11;68.80
39773;BME280;25451;51.960;6.250;2023-03-16T10:19:19;101372.47;;;7.22;68.24
39773;BME280;25451;51.960;6.250;2023-03-16T10:21:48;101366.53;;;7.25;68.23
39773;BME280;25451;51.960;6.250;2023-03-16T10:27:05;101369.13;;;7.33;68.09
39773;BME280;25451;51.960;6.250;2023-03-16T10:29:35;101369.53;;;7.36;68.48
39773;BME280;25451;51.960;6.250;2023-03-16T10:32:12;101352.19;;;7.36;68.35
39773;BME280;25451;51.960;6.250;2023-03-16T10:34:37;101356.44;;;7.38;68.02
39773;BME280;25451;51.960;6.250;2023-03-16T10:37:04;101342.69;;;7.38;68.37
39773;BME280;25451;51.960;6.250;2023-03-16T10:39:35;101355.38;;;7.46;68.37
39773;BME280;25451;51.960;6.250;2023-03-16T10:42:01;101342.06;;;7.43;68.20
39773;BME280;25451;51.960;6.250;2023-03-16T10:44:28;101352.00;;;7.50;68.53
39773;BME280;25451;51.960;6.250;2023-03-16T10:46:58;101352.00;;;7.57;68.30
39773;BME280;25451;51.960;6.250;2023-03-16T10:49:41;101349.44;;;7.62;68.21
39773;BME280;25451;51.960;6.250;2023-03-16T10:52:42;101346.69;;;7.69;68.39
39773;BME280;25451;51.960;6.250;2023-03-16T10:55:29;101349.22;;;7.77;68.19
39773;BME280;25451;51.960;6.250;2023-03-16T10:57:57;101346.47;;;7.83;68.50
39773;BME280;25451;51.960;6.250;2023-03-16T11:00:28;101346.66;;;7.95;68.21
39773;BME280;25451;51.960;6.250;2023-03-16T11:02:57;101343.03;;;8.07;67.95
39773;BME280;25451;51.960;6.250;2023-03-16T11:07:56;101324.34;;;8.29;67.90
39773;BME280;25451;51.960;6.250;2023-03-16T11:10:31;101326.22;;;8.42;67.92
39773;BME280;25451;51.960;6.250;2023-03-16T11:13:07;101318.56;;;8.50;68.22
39773;BME280;25451;51.960;6.250;2023-03-16T11:15:41;101329.72;;;8.62;68.12
39773;BME280;25451;51.960;6.250;2023-03-16T11:18:15;101315.25;;;8.73;67.63
39773;BME280;25451;51.960;6.250;2023-03-16T11:20:44;101330.19;;;8.90;68.23
39773;BME280;25451;51.960;6.250;2023-03-16T11:23:14;101326.28;;;9.04;67.77
39773;BME280;25451;51.960;6.250;2023-03-16T11:25:47;101318.16;;;9.15;67.80
39773;BME280;25451;51.960;6.250;2023-03-16T11:28:39;101323.72;;;9.34;68.00
39773;BME280;25451;51.960;6.250;2023-03-16T11:32:00;101318.56;;;9.44;67.73
39773;BME280;25451;51.960;6.250;2023-03-16T11:33:59;101312.69;;;9.58;67.70
39773;BME280;25451;51.960;6.250;2023-03-16T11:36:43;101313.03;;;9.68;67.81
39773;BME280;25451;51.960;6.250;2023-03-16T11:39:30;101302.31;;;9.78;67.74
39773;BME280;25451;51.960;6.250;2023-03-16T11:42:14;101300.97;;;9.87;67.56
39773;BME280;25451;51.960;6.250;2023-03-16T11:44:56;101308.31;;;9.93;67.66
39773;BME280;25451;51.960;6.250;2023-03-16T11:53:13;101287.41;;;10.22;67.46
39773;BME280;25451;51.960;6.250;2023-03-16T11:56:02;101285.66;;;10.28;67.37
39773;BME280;25451;51.960;6.250;2023-03-16T12:01:40;101280.19;;;10.39;67.19
39773;BME280;25451;51.960;6.250;2023-03-16T12:07:41;101255.34;;;10.39;67.05
39773;BME280;25451;51.960;6.250;2023-03-16T12:15:44;101248.81;;;10.52;66.81
39773;BME280;25451;51.960;6.250;2023-03-16T12:18:24;101234.25;;;10.45;66.81
39773;BME280;25451;51.960;6.250;2023-03-16T12:23:29;101237.78;;;10.52;66.54
39773;BME280;25451;51.960;6.250;2023-03-16T12:25:57;101241.75;;;10.56;66.61
39773;BME280;25451;51.960;6.250;2023-03-16T12:28:27;101248.94;;;10.57;66.42
39773;BME280;25451;51.960;6.250;2023-03-16T12:33:46;101232.53;;;10.62;66.35
39773;BME280;25451;51.960;6.250;2023-03-16T12:38:50;101222.72;;;10.66;66.05
39773;BME280;25451;51.960;6.250;2023-03-16T12:41:29;101220.56;;;10.68;65.96
39773;BME280;25451;51.960;6.250;2023-03-16T12:44:17;101224.97;;;10.69;65.80
39773;BME280;25451;51.960;6.250;2023-03-16T12:46:53;101206.25;;;10.71;65.67
39773;BME280;25451;51.960;6.250;2023-03-16T12:49:22;101200.13;;;10.69;65.65
39773;BME280;25451;51.960;6.250;2023-03-16T12:51:58;101196.91;;;10.72;65.50
39773;BME280;25451;51.960;6.250;2023-03-16T12:54:25;101198.47;;;10.79;65.55
39773;BME280;25451;51.960;6.250;2023-03-16T12:56:52;101188.66;;;10.83;65.34
39773;BME280;25451;51.960;6.250;2023-03-16T12:59:23;101190.94;;;10.87;65.42
39773;BME280;25451;51.960;6.250;2023-03-16T13:01:56;101186.50;;;10.85;65.19
39773;BME280;25451;51.960;6.250;2023-03-16T13:04:30;101179.78;;;10.93;65.05
39773;BME280;25451;51.960;6.250;2023-03-16T13:07:05;101170.91;;;10.91;64.99
39773;BME280;25451;51.960;6.250;2023-03-16T13:09:34;101163.59;;;10.97;64.96
39773;BME280;25451;51.960;6.250;2023-03-16T13:12:01;101168.16;;;11.03;64.87
39773;BME280;25451;51.960;6.250;2023-03-16T13:14:43;101174.03;;;11.06;64.72
39773;BME280;25451;51.960;6.250;2023-03-16T13:19:40;101164.06;;;11.05;64.64
39773;BME280;25451;51.960;6.250;2023-03-16T13:25:14;101144.00;;;10.98;64.42
39773;BME280;25451;51.960;6.250;2023-03-16T13:27:43;101156.97;;;11.09;64.43
39773;BME280;25451;51.960;6.250;2023-03-16T13:30:19;101129.38;;;11.09;64.28
39773;BME280;25451;51.960;6.250;2023-03-16T13:32:46;101137.28;;;11.17;64.31
39773;BME280;25451;51.960;6.250;2023-03-16T13:35:14;101130.06;;;11.16;64.35
39773;BME280;25451;51.960;6.250;2023-03-16T13:37:42;101144.72;;;11.17;64.27
39773;BME280;25451;51.960;6.250;2023-03-16T13:40:25;101138.94;;;11.18;64.30
39773;BME280;25451;51.960;6.250;2023-03-16T13:42:56;101127.91;;;11.18;64.08
39773;BME280;25451;51.960;6.250;2023-03-16T13:45:27;101120.72;;;11.17;63.93
39773;BME280;25451;51.960;6.250;2023-03-16T13:47:53;101120.31;;;11.14;64.08
39773;BME280;25451;51.960;6.250;2023-03-16T13:50:19;101106.66;;;11.07;63.88
39773;BME280;25451;51.960;6.250;2023-03-16T13:52:56;101110.00;;;11.21;63.64
39773;BME280;25451;51.960;6.250;2023-03-16T13:55:30;101099.44;;;11.18;63.75
39773;BME280;25451;51.960;6.250;2023-03-16T13:57:56;101108.09;;;11.21;63.61
39773;BME280;25451;51.960;6.250;2023-03-16T14:00:29;101107.50;;;11.19;63.66